Current | Forecast
Updated: 3:00 PM JST on May 01, 2017
Observed at Tajima, Japan
Temperature 63°F
Humidity 100%
Dew Point 63°F
Wind North at 6 mph
Pressure 30.01 in (Steady)
Conditions Mostly Cloudy
Visibility 6.2 miles
UV 4 out of 16
Clouds (FEW) : 1500 ft
Scattered Clouds (SCT) : 2000 ft
Mostly Cloudy (BKN) : 6000 ft
Yesterday's Maximum 84°F
Yesterday's Minimum 68°F approx.
Yesterday's Cooling Degree Days 11 approx.
Sunrise5:07 AM JST
Sunset6:44 PM JST
Moon Rise9:23 AM JST
Moon Set11:47 PM JST
Moon PhaseMoon Phase
Waxing Crescent
Raw METARMETAR RJBT 010600Z 01005KT 9999 FEW015 SCT020 BKN060 17/17 Q1016


Monday
. High: 80° F.
Tuesday
. High: 75° F.
Wednesday
. High: 71° F.
Thursday
. High: 78° F.
Friday
. High: 80° F.
Saturday
. High: 73° F.
Sunday
. High: 77° F.
Monday
. High: 78° F.

Units: English | Metric

Find the Weather for any City, State or Zipcode, or Country:

U.S. State List | Severe Weather | Tropical Storms | Ski Conditions
United States | Canada | Central America | South America | Asia | Europe | Australia | Africa | Islands

Weather Underground

© Copyright 2017
The Weather Company, LLC